EDVK/KSF METAR and TAF weather

Enter ICAO airport designator
Station Type Date Time Source
EDVK METAR 2022/06/30 13:20 UTC NOAA

EDVK 301320Z 08007KT 050V120 9999 FEW004 SCT045CB 28/20 Q1011


Station Type Date Time Source
EDVK Decoded METAR 2022/06/30 13:20 UTC NOAA

Kassel / Calden, Germany (EDVK) 51-24N 009-23E 283M
Jun 30, 2022 - 09:20 AM EDT / 2022.06.30 1320 UTC
Wind: from the E (080 degrees) at 8 MPH (7 KT) (direction variable):0
Visibility: greater than 7 mile(s):0
Sky conditions: partly cloudy
Weather: Cumulonimbus clouds observed
Temperature: 82 F (28 C)
Dew Point: 68 F (20 C)
Relative Humidity: 61%
Pressure (altimeter): 29.85 in. Hg (1011 hPa)
ob: EDVK 301320Z 08007KT 050V120 9999 FEW004 SCT045CB 28/20 Q1011
cycle: 13

Station Type Date Time Source
EDVK TAF 2011/03/23 07:09 UTC NOAA

TAF COR EDVK 230655Z 2307/2321 30002KT 3500 BR SCT025 PROB30
TEMPO 2307/2309 1400 BCFG
BECMG 2307/2310 01007KT 8000

Example: see airport list